Time;durP1;ratioP1;P1;durP2;ratioP2;P2;SDS_P1;SDS_P2;PMS_P1;PMS_P2;Temp;Humidity;BMP_temperature;BMP_pressure;BME280_temperature;BME280_humidity;BME280_pressure;Samples;Min_cycle;Max_cycle;Signal;HPM_P1;HPM_P2
2022/12/05 00:01:18;;;;;;;3.53;3.22;;;2.80;99.90;;;;;;5059239;28;20195;-71
2022/12/05 00:03:46;;;;;;;2.05;1.85;;;2.80;99.90;;;;;;5054080;28;20204;-71
2022/12/05 00:06:12;;;;;;;1.85;1.67;;;2.80;99.90;;;;;;5061204;28;20191;-73
2022/12/05 00:08:40;;;;;;;1.73;1.35;;;2.90;99.90;;;;;;5048638;28;20202;-72
2022/12/05 00:11:12;;;;;;;5.10;2.50;;;2.80;99.90;;;;;;5049201;28;20236;-71
2022/12/05 00:13:40;;;;;;;2.80;2.13;;;2.80;99.90;;;;;;5067312;28;20697;-71
2022/12/05 00:16:08;;;;;;;3.72;3.33;;;2.80;99.90;;;;;;5067519;28;20662;-71
2022/12/05 00:18:35;;;;;;;1.38;1.38;;;2.80;99.90;;;;;;5064524;28;20210;-71
2022/12/05 00:21:02;;;;;;;3.00;2.80;;;2.80;99.90;;;;;;5067699;28;20202;-72
2022/12/05 00:23:28;;;;;;;5.78;2.78;;;2.80;99.90;;;;;;5049167;28;20291;-71
2022/12/05 00:25:57;;;;;;;2.78;2.45;;;2.60;99.90;;;;;;5048044;28;20203;-71
2022/12/05 00:28:23;;;;;;;3.15;2.90;;;2.70;99.90;;;;;;5064905;28;20191;-71
2022/12/05 00:30:50;;;;;;;3.15;2.85;;;2.60;99.90;;;;;;5067615;28;20239;-71
2022/12/05 00:33:17;;;;;;;2.20;2.10;;;2.50;99.90;;;;;;5067565;28;20568;-71
2022/12/05 00:35:44;;;;;;;2.97;2.60;;;2.50;99.90;;;;;;5049186;28;20287;-71
2022/12/05 00:38:10;;;;;;;2.53;1.58;;;2.50;99.90;;;;;;5062453;28;20200;-71
2022/12/05 00:40:37;;;;;;;4.43;2.50;;;2.50;99.90;;;;;;5067728;28;20210;-70
2022/12/05 00:43:05;;;;;;;2.15;1.60;;;2.40;99.90;;;;;;5057209;28;20196;-71
2022/12/05 00:45:33;;;;;;;2.80;2.60;;;2.50;99.90;;;;;;5067603;28;20203;-71
2022/12/05 00:48:00;;;;;;;1.70;1.60;;;2.60;99.90;;;;;;5066022;28;20199;-71
2022/12/05 00:50:27;;;;;;;2.03;1.40;;;2.60;99.90;;;;;;5067299;28;20218;-71
2022/12/05 00:52:54;;;;;;;6.43;1.55;;;2.60;99.90;;;;;;5066227;28;20732;-71
2022/12/05 00:55:20;;;;;;;0.98;0.98;;;2.60;99.90;;;;;;5067686;28;20214;-71
2022/12/05 00:57:47;;;;;;;3.05;1.20;;;2.50;99.90;;;;;;5063345;28;20552;-71
2022/12/05 01:00:17;;;;;;;1.52;1.42;;;2.60;99.90;;;;;;5067740;28;20241;-71
2022/12/05 01:02:44;;;;;;;3.03;1.58;;;2.70;99.90;;;;;;5066251;28;20204;-71
2022/12/05 01:05:11;;;;;;;1.65;1.38;;;2.80;99.90;;;;;;5067595;28;20191;-71
2022/12/05 01:07:38;;;;;;;1.65;1.13;;;2.80;99.90;;;;;;5058972;28;20726;-71
2022/12/05 01:10:06;;;;;;;4.25;2.25;;;2.80;99.90;;;;;;5048322;28;20221;-74
2022/12/05 01:12:33;;;;;;;1.45;1.25;;;2.80;99.90;;;;;;5055551;28;20202;-71
2022/12/05 01:15:00;;;;;;;3.35;2.80;;;2.90;99.90;;;;;;5047568;28;20567;-71
2022/12/05 01:17:28;;;;;;;2.10;1.85;;;2.80;99.90;;;;;;5055969;28;20191;-71
2022/12/05 01:19:55;;;;;;;1.50;1.40;;;2.80;99.90;;;;;;5067066;28;20207;-71
2022/12/05 01:22:22;;;;;;;2.30;1.27;;;2.80;99.90;;;;;;5066210;28;20200;-72
2022/12/05 01:24:48;;;;;;;5.85;2.97;;;2.90;99.90;;;;;;5047258;28;20674;-71
2022/12/05 01:27:15;;;;;;;1.30;1.00;;;2.90;99.90;;;;;;5058735;28;20676;-71
2022/12/05 01:29:45;;;;;;;2.38;1.92;;;2.90;99.90;;;;;;5061433;28;20196;-71
2022/12/05 01:32:11;;;;;;;3.08;2.78;;;2.90;99.90;;;;;;5056515;28;20719;-72
2022/12/05 01:34:40;;;;;;;2.80;1.10;;;2.90;99.90;;;;;;5067331;28;20198;-72
2022/12/05 01:37:06;;;;;;;7.97;1.80;;;2.90;99.90;;;;;;5060811;28;20524;-71
2022/12/05 01:39:33;;;;;;;1.90;1.75;;;2.80;99.90;;;;;;5048718;28;20206;-71
2022/12/05 01:42:00;;;;;;;0.98;0.98;;;2.80;99.90;;;;;;5055073;28;20199;-73
2022/12/05 01:45:06;;;;;;;1.85;1.60;;;2.80;99.90;;;;;;5055733;28;20287;-71
2022/12/05 01:47:36;;;;;;;2.00;1.17;;;2.90;99.90;;;;;;5060870;28;20200;-72
2022/12/05 01:50:05;;;;;;;1.50;1.30;;;2.90;99.90;;;;;;5051072;28;20279;-72
2022/12/05 01:52:34;;;;;;;1.60;1.50;;;2.90;99.90;;;;;;5063760;28;20233;-71
2022/12/05 01:55:06;;;;;;;2.10;1.75;;;2.90;99.90;;;;;;5071110;28;20694;-71
2022/12/05 01:57:33;;;;;;;2.03;1.83;;;2.80;99.90;;;;;;5070336;28;20209;-71
2022/12/05 02:00:04;;;;;;;1.70;1.55;;;2.80;99.90;;;;;;5068604;28;20299;-72
2022/12/05 02:02:32;;;;;;;1.38;1.38;;;2.80;99.90;;;;;;5069533;28;20203;-71
2022/12/05 02:05:04;;;;;;;0.70;0.70;;;2.80;99.90;;;;;;5069624;28;20199;-71
2022/12/05 02:07:33;;;;;;;6.30;3.22;;;2.80;99.90;;;;;;5064387;28;20619;-72
2022/12/05 02:10:01;;;;;;;1.75;0.93;;;2.90;99.90;;;;;;5070479;28;20232;-71
2022/12/05 02:12:29;;;;;;;1.80;1.20;;;2.90;99.90;;;;;;5061014;28;20228;-71
2022/12/05 02:15:08;;;;;;;1.67;1.30;;;2.80;99.90;;;;;;5054132;28;20276;-71
2022/12/05 02:17:46;;;;;;;1.45;1.30;;;2.80;99.90;;;;;;5052685;28;20200;-70
2022/12/05 02:20:29;;;;;;;2.45;1.52;;;2.80;99.90;;;;;;5050839;28;20196;-71
2022/12/05 02:23:32;;;;;;;1.52;0.75;;;2.80;99.90;;;;;;5066897;28;20250;-71
2022/12/05 02:26:47;;;;;;;3.42;1.05;;;2.80;99.90;;;;;;5060133;28;20203;-71
2022/12/05 02:29:54;;;;;;;3.08;1.38;;;2.80;99.90;;;;;;5069572;28;20218;-71
2022/12/05 02:32:34;;;;;;;2.15;1.30;;;2.80;99.90;;;;;;5051160;28;20234;-71
2022/12/05 02:35:12;;;;;;;4.45;2.15;;;2.90;99.90;;;;;;5067580;28;20206;-71
2022/12/05 02:37:45;;;;;;;1.73;1.45;;;3.00;99.90;;;;;;5068469;28;20798;-71
2022/12/05 02:40:21;;;;;;;2.22;1.38;;;3.00;99.90;;;;;;5070104;28;20203;-71
2022/12/05 02:42:55;;;;;;;2.53;2.33;;;2.90;99.90;;;;;;5063727;28;20237;-70
2022/12/05 02:45:28;;;;;;;5.68;2.28;;;2.90;99.90;;;;;;5069762;28;20657;-71
2022/12/05 02:47:56;;;;;;;1.23;0.65;;;2.90;99.90;;;;;;5057794;28;20210;-71
2022/12/05 02:50:29;;;;;;;2.08;1.13;;;2.80;99.90;;;;;;5050124;28;20204;-71
2022/12/05 02:53:01;;;;;;;1.27;1.08;;;2.90;99.90;;;;;;5063036;28;20226;-71
2022/12/05 02:55:32;;;;;;;0.90;0.90;;;2.90;99.90;;;;;;5049550;28;20211;-71
2022/12/05 02:58:04;;;;;;;5.75;2.63;;;2.90;99.90;;;;;;5063734;28;20233;-71
2022/12/05 03:00:35;;;;;;;3.30;1.95;;;2.90;99.90;;;;;;5069462;28;20195;-71
2022/12/05 03:03:13;;;;;;;3.05;1.38;;;3.00;99.90;;;;;;5057099;28;20196;-72
2022/12/05 03:05:44;;;;;;;2.15;0.88;;;3.00;99.90;;;;;;5069124;28;20207;-71
2022/12/05 03:08:17;;;;;;;0.95;0.95;;;2.90;99.90;;;;;;5061632;28;20241;-71
2022/12/05 03:10:48;;;;;;;2.00;1.13;;;2.90;99.90;;;;;;5068544;28;20309;-71
2022/12/05 03:13:21;;;;;;;1.70;1.60;;;2.90;99.90;;;;;;5053552;28;20249;-71
2022/12/05 03:15:55;;;;;;;5.28;3.03;;;2.90;99.90;;;;;;5049364;28;20249;-71
2022/12/05 03:18:25;;;;;;;1.10;1.02;;;2.90;99.90;;;;;;5067214;28;20211;-71
2022/12/05 03:21:00;;;;;;;3.47;2.70;;;5.00;99.90;;;;;;5068530;28;20206;-71
2022/12/05 03:23:32;;;;;;;5.55;3.10;;;3.00;99.90;;;;;;5049413;28;20208;-72
2022/12/05 03:26:13;;;;;;;7.82;3.08;;;3.00;99.90;;;;;;5052072;28;20676;-71
2022/12/05 03:28:50;;;;;;;1.08;1.08;;;3.00;99.90;;;;;;5068365;28;20218;-71
2022/12/05 03:31:28;;;;;;;2.25;2.03;;;3.00;99.90;;;;;;5067237;28;20230;-71
2022/12/05 03:34:00;;;;;;;1.23;1.20;;;3.10;99.90;;;;;;5065813;28;20254;-71
2022/12/05 03:36:37;;;;;;;2.65;2.45;;;3.10;99.90;;;;;;5051533;28;20223;-74
2022/12/05 03:39:10;;;;;;;3.25;2.25;;;3.10;99.90;;;;;;5049956;28;20196;-71
2022/12/05 03:41:42;;;;;;;2.38;1.67;;;3.10;99.90;;;;;;5053471;28;20230;-71
2022/12/05 03:44:15;;;;;;;5.28;3.15;;;3.00;99.90;;;;;;5047951;28;20208;-71
2022/12/05 03:46:48;;;;;;;2.50;1.50;;;3.00;99.90;;;;;;5054093;28;20194;-71
2022/12/05 03:49:22;;;;;;;5.35;1.88;;;3.00;99.90;;;;;;5066299;28;20203;-71
2022/12/05 03:51:57;;;;;;;4.68;1.90;;;3.10;99.90;;;;;;5061552;28;20227;-71
2022/12/05 03:54:27;;;;;;;1.45;1.33;;;3.20;99.90;;;;;;5055357;28;20210;-71
2022/12/05 03:56:59;;;;;;;2.00;1.88;;;3.10;99.90;;;;;;5058746;28;20207;-71
2022/12/05 03:59:32;;;;;;;3.67;2.00;;;3.10;99.90;;;;;;5062000;28;20203;-71
2022/12/05 04:02:08;;;;;;;4.38;2.05;;;3.10;99.90;;;;;;5055587;28;20199;-71
2022/12/05 04:04:39;;;;;;;1.63;1.55;;;3.10;99.90;;;;;;5067795;28;20818;-71
2022/12/05 04:07:08;;;;;;;3.10;2.72;;;3.10;99.90;;;;;;5067621;28;20552;-71
2022/12/05 04:09:40;;;;;;;2.15;1.60;;;3.20;99.90;;;;;;5067290;28;20241;-72
2022/12/05 04:12:10;;;;;;;9.65;4.20;;;3.10;99.90;;;;;;5062300;28;20238;-71
2022/12/05 04:14:42;;;;;;;4.10;1.83;;;3.10;99.90;;;;;;5048314;28;20218;-71
2022/12/05 04:17:14;;;;;;;0.57;0.57;;;3.10;99.90;;;;;;5052963;28;20196;-71
2022/12/05 04:22:30;;;;;;;1.42;1.33;;;3.20;99.90;;;;;;5055625;28;20287;-72
2022/12/05 04:27:53;;;;;;;2.08;1.92;;;3.00;99.90;;;;;;5066016;28;20281;-71
2022/12/05 04:30:23;;;;;;;2.30;2.15;;;2.90;99.90;;;;;;5064762;28;20202;-72
2022/12/05 04:32:59;;;;;;;4.35;4.05;;;3.00;99.90;;;;;;5066922;28;20704;-71
2022/12/05 04:35:30;;;;;;;1.75;1.23;;;3.00;99.90;;;;;;5065489;28;20205;-71
2022/12/05 04:38:03;;;;;;;3.05;1.65;;;2.90;99.90;;;;;;5052673;28;20196;-71
2022/12/05 04:40:35;;;;;;;1.92;1.83;;;2.90;99.90;;;;;;5058262;28;20203;-71
2022/12/05 04:43:04;;;;;;;3.90;2.25;;;2.90;99.90;;;;;;5061090;28;20203;-72
2022/12/05 04:45:32;;;;;;;1.30;1.20;;;2.90;99.90;;;;;;5066865;28;20206;-71
2022/12/05 04:48:05;;;;;;;0.77;0.77;;;2.90;99.90;;;;;;5054903;28;20256;-71
2022/12/05 04:50:34;;;;;;;3.92;3.00;;;2.90;99.90;;;;;;5056748;28;20199;-72
2022/12/05 04:53:02;;;;;;;4.55;1.90;;;2.80;99.90;;;;;;5065940;28;20233;-71
2022/12/05 04:55:34;;;;;;;3.42;2.13;;;2.80;99.90;;;;;;5066867;28;20201;-73
2022/12/05 04:58:06;;;;;;;0.93;0.88;;;2.80;99.90;;;;;;5066353;28;20199;-71
2022/12/05 05:00:39;;;;;;;1.90;1.38;;;2.70;99.90;;;;;;5066743;28;20318;-71
2022/12/05 05:03:13;;;;;;;0.70;0.70;;;2.70;99.90;;;;;;5065605;28;20201;-71
2022/12/05 05:05:41;;;;;;;3.85;0.95;;;2.70;99.90;;;;;;5063337;28;20194;-71
2022/12/05 05:08:17;;;;;;;3.80;1.70;;;2.70;99.90;;;;;;5061139;28;20622;-71
2022/12/05 05:10:52;;;;;;;2.90;1.70;;;2.60;99.90;;;;;;5066051;28;20195;-72
2022/12/05 05:13:18;;;;;;;3.08;1.67;;;2.70;99.90;;;;;;5050741;28;20739;-71
2022/12/05 05:15:45;;;;;;;1.05;0.98;;;2.70;99.90;;;;;;5058750;28;20191;-71
2022/12/05 05:18:13;;;;;;;14.98;1.58;;;2.80;99.90;;;;;;5069642;28;20199;-71
2022/12/05 05:20:40;;;;;;;4.90;2.70;;;2.80;99.90;;;;;;5066351;28;20192;-71
2022/12/05 05:23:07;;;;;;;0.90;0.90;;;2.90;99.90;;;;;;5066577;28;20202;-72
2022/12/05 05:25:33;;;;;;;1.70;1.60;;;2.90;99.90;;;;;;5066959;28;20196;-71
2022/12/05 05:28:00;;;;;;;2.78;1.73;;;3.00;99.90;;;;;;5068638;28;20199;-71
2022/12/05 05:30:27;;;;;;;2.88;2.00;;;3.10;99.90;;;;;;5060039;28;20285;-71
2022/12/05 05:32:54;;;;;;;3.17;2.97;;;3.30;99.90;;;;;;5063760;28;20229;-72
2022/12/05 05:35:22;;;;;;;1.80;1.60;;;3.20;99.90;;;;;;5055878;28;20857;-71
2022/12/05 05:37:49;;;;;;;2.45;1.88;;;3.20;99.90;;;;;;5066320;28;20209;-71
2022/12/05 05:40:16;;;;;;;1.63;1.33;;;3.20;99.90;;;;;;5068982;28;20209;-72
2022/12/05 05:42:43;;;;;;;3.75;1.88;;;3.20;99.90;;;;;;5055548;28;20207;-71
2022/12/05 05:45:12;;;;;;;8.48;2.42;;;3.20;99.90;;;;;;5060708;28;20195;-73
2022/12/05 05:47:39;;;;;;;6.75;2.17;;;3.20;99.90;;;;;;5059248;28;20207;-71
2022/12/05 05:50:07;;;;;;;2.70;1.73;;;3.20;99.90;;;;;;5061446;28;20195;-72
2022/12/05 05:52:36;;;;;;;3.75;2.03;;;3.20;99.90;;;;;;5064099;28;20249;-71
2022/12/05 05:55:05;;;;;;;1.58;1.48;;;3.20;99.90;;;;;;5070127;28;20196;-71
2022/12/05 05:57:32;;;;;;;4.70;2.60;;;3.20;99.90;;;;;;5056731;28;20202;-71
2022/12/05 05:59:59;;;;;;;2.45;1.50;;;3.20;99.90;;;;;;5058336;28;20204;-72
2022/12/05 06:02:25;;;;;;;3.38;1.92;;;3.10;99.90;;;;;;5065215;28;20203;-72
2022/12/05 06:04:52;;;;;;;2.67;2.13;;;3.00;99.90;;;;;;5069206;28;20217;-72
2022/12/05 06:07:19;;;;;;;2.67;1.42;;;3.00;99.90;;;;;;5062945;28;20201;-71
2022/12/05 06:09:47;;;;;;;3.50;2.33;;;2.90;99.90;;;;;;5069378;28;20556;-72
2022/12/05 06:12:14;;;;;;;2.60;2.40;;;3.00;99.90;;;;;;5062622;28;20224;-72
2022/12/05 06:14:40;;;;;;;3.13;1.65;;;3.00;99.90;;;;;;5050595;28;20227;-72
2022/12/05 06:17:07;;;;;;;1.73;1.63;;;2.90;99.90;;;;;;5065803;28;20205;-72
2022/12/05 06:19:34;;;;;;;5.15;2.47;;;3.00;99.90;;;;;;5068642;28;20206;-72
2022/12/05 06:22:01;;;;;;;2.40;1.73;;;3.00;99.90;;;;;;5057690;28;20201;-72
2022/12/05 06:24:28;;;;;;;4.03;2.78;;;2.90;99.90;;;;;;5069890;28;20292;-73
2022/12/05 06:26:56;;;;;;;5.07;2.28;;;2.80;99.90;;;;;;5051779;28;20207;-72
2022/12/05 06:29:23;;;;;;;1.20;0.95;;;2.90;99.90;;;;;;5053103;28;20200;-73
2022/12/05 06:31:49;;;;;;;1.67;1.58;;;2.90;99.90;;;;;;5056456;28;20711;-71
2022/12/05 06:34:16;;;;;;;2.72;2.22;;;2.90;99.90;;;;;;5064281;28;20194;-73
2022/12/05 06:36:43;;;;;;;4.03;2.78;;;2.90;99.90;;;;;;5064417;28;20211;-73
2022/12/05 06:39:10;;;;;;;3.53;3.30;;;3.00;99.90;;;;;;5069016;28;20215;-72
2022/12/05 06:41:37;;;;;;;11.40;4.25;;;3.00;99.90;;;;;;5054107;28;21471;-73
2022/12/05 06:44:05;;;;;;;3.47;3.05;;;3.00;99.90;;;;;;5069253;28;20212;-71
2022/12/05 06:46:32;;;;;;;4.68;2.30;;;3.30;99.90;;;;;;5066971;28;20879;-73
2022/12/05 06:48:59;;;;;;;3.28;2.33;;;3.10;99.90;;;;;;5069780;28;20199;-72
2022/12/05 06:51:26;;;;;;;2.10;1.98;;;3.10;99.90;;;;;;5067726;28;20203;-73
2022/12/05 06:53:53;;;;;;;4.43;3.85;;;3.00;99.90;;;;;;5058970;28;20299;-72
2022/12/05 06:56:20;;;;;;;2.42;2.22;;;3.00;99.90;;;;;;5049000;28;20306;-73
2022/12/05 06:58:49;;;;;;;1.58;1.48;;;3.10;99.90;;;;;;5055930;28;20650;-73
2022/12/05 07:04:05;;;;;;;2.45;1.88;;;3.10;99.90;;;;;;5058894;28;20200;-73
2022/12/05 07:06:33;;;;;;;2.80;1.52;;;3.10;99.90;;;;;;5060383;28;20204;-72
2022/12/05 07:09:00;;;;;;;7.43;4.18;;;3.10;99.90;;;;;;5052220;28;20196;-72
2022/12/05 07:11:27;;;;;;;1.23;1.15;;;2.70;99.90;;;;;;5063829;28;20210;-73
2022/12/05 07:13:54;;;;;;;4.40;3.17;;;3.00;99.90;;;;;;5062982;28;20587;-72
2022/12/05 07:16:24;;;;;;;4.43;3.33;;;3.10;99.90;;;;;;5056553;28;20964;-73
2022/12/05 07:18:56;;;;;;;2.00;1.90;;;3.20;99.90;;;;;;5055291;28;20216;-72
2022/12/05 07:21:38;;;;;;;1.23;1.15;;;3.20;99.90;;;;;;5051950;28;20207;-72
2022/12/05 07:24:06;;;;;;;2.35;1.70;;;3.30;99.90;;;;;;5059265;28;20234;-73
2022/12/05 07:26:33;;;;;;;5.43;2.17;;;3.30;99.90;;;;;;5055217;28;20264;-72
2022/12/05 07:29:00;;;;;;;1.65;1.52;;;3.30;99.90;;;;;;5055377;28;20219;-72
2022/12/05 07:31:28;;;;;;;4.90;2.10;;;3.40;99.90;;;;;;5053167;28;20223;-73
2022/12/05 07:33:55;;;;;;;3.63;3.00;;;;;;;;;;5056760;28;20230;-72
2022/12/05 07:36:24;;;;;;;2.05;1.88;;;3.50;99.90;;;;;;5055576;28;20559;-72
2022/12/05 07:38:55;;;;;;;5.00;3.30;;;3.50;99.90;;;;;;5047427;28;20188;-73
2022/12/05 07:41:24;;;;;;;2.50;1.30;;;3.60;99.90;;;;;;5052902;28;20276;-72
2022/12/05 07:43:51;;;;;;;2.65;1.25;;;3.60;99.90;;;;;;5067073;28;20260;-73
2022/12/05 07:46:18;;;;;;;1.10;1.10;;;3.70;99.90;;;;;;5062807;28;20192;-73
2022/12/05 07:48:48;;;;;;;4.68;2.67;;;3.60;99.90;;;;;;5063058;28;20245;-72
2022/12/05 07:51:15;;;;;;;3.03;2.40;;;3.70;99.90;;;;;;5065328;28;20199;-72
2022/12/05 07:53:43;;;;;;;1.80;1.70;;;3.70;99.90;;;;;;5058400;28;20740;-73
2022/12/05 07:56:13;;;;;;;3.58;3.28;;;3.80;99.90;;;;;;5056199;28;20308;-73
2022/12/05 07:58:40;;;;;;;2.40;1.60;;;3.90;99.90;;;;;;5062126;28;20555;-73
2022/12/05 08:01:08;;;;;;;3.83;1.60;;;3.90;99.90;;;;;;5061396;28;20196;-72
2022/12/05 08:03:36;;;;;;;4.63;1.85;;;4.10;99.90;;;;;;5056956;28;20203;-73
2022/12/05 08:06:05;;;;;;;2.97;2.50;;;3.90;99.90;;;;;;5056337;28;20670;-73
2022/12/05 08:08:32;;;;;;;1.25;1.13;;;4.00;99.90;;;;;;5048668;28;20200;-72
2022/12/05 08:11:03;;;;;;;1.70;1.60;;;3.90;99.90;;;;;;5064404;28;20293;-73
2022/12/05 08:13:30;;;;;;;1.27;0.98;;;4.00;99.90;;;;;;5063807;28;20296;-73
2022/12/05 08:16:01;;;;;;;1.63;1.45;;;4.10;99.90;;;;;;5058722;28;20241;-73
2022/12/05 08:18:28;;;;;;;5.88;2.88;;;4.00;99.90;;;;;;5054376;28;20885;-72
2022/12/05 08:20:54;;;;;;;5.88;2.13;;;4.00;99.90;;;;;;5055070;28;20290;-73
2022/12/05 08:23:23;;;;;;;1.83;1.20;;;4.00;99.90;;;;;;5055930;28;20203;-73
2022/12/05 08:25:49;;;;;;;3.97;3.40;;;4.10;99.90;;;;;;5055584;28;20188;-73
2022/12/05 08:28:17;;;;;;;3.10;1.92;;;4.10;99.90;;;;;;5056389;28;20282;-73
2022/12/05 08:30:44;;;;;;;2.33;1.67;;;4.10;99.90;;;;;;5053732;28;20195;-72
2022/12/05 08:33:11;;;;;;;4.35;2.00;;;4.10;99.90;;;;;;5064114;28;20226;-72
2022/12/05 08:35:38;;;;;;;1.67;1.17;;;4.10;99.90;;;;;;5060603;28;20200;-72
2022/12/05 08:38:05;;;;;;;5.50;1.73;;;4.10;99.90;;;;;;5057840;28;20187;-73
2022/12/05 08:40:33;;;;;;;2.10;1.70;;;4.10;99.90;;;;;;5057239;28;20203;-72
2022/12/05 08:42:59;;;;;;;1.83;1.73;;;4.10;99.90;;;;;;5055357;28;20196;-73
2022/12/05 08:45:26;;;;;;;10.20;2.65;;;4.10;99.90;;;;;;5047170;28;20208;-72
2022/12/05 08:47:53;;;;;;;2.70;2.35;;;4.20;99.90;;;;;;5057664;28;20198;-71
2022/12/05 08:50:20;;;;;;;4.80;2.65;;;4.10;99.90;;;;;;5055484;28;20191;-72
2022/12/05 08:52:47;;;;;;;1.38;1.25;;;4.10;99.90;;;;;;5065644;28;20230;-72
2022/12/05 08:55:13;;;;;;;4.63;2.17;;;4.10;99.90;;;;;;5058711;28;20201;-72
2022/12/05 08:57:42;;;;;;;4.38;2.22;;;4.20;99.90;;;;;;5064444;28;20225;-73
2022/12/05 09:00:09;;;;;;;4.97;1.98;;;4.20;99.90;;;;;;5061047;28;20674;-72
2022/12/05 09:02:36;;;;;;;4.40;2.05;;;4.20;99.90;;;;;;5050140;28;20306;-72
2022/12/05 09:05:03;;;;;;;4.50;2.67;;;4.20;99.90;;;;;;5065516;28;20611;-72
2022/12/05 09:07:30;;;;;;;4.53;2.70;;;4.30;99.90;;;;;;5055752;28;20205;-72
2022/12/05 09:09:57;;;;;;;3.60;1.95;;;4.30;99.90;;;;;;5050879;28;20929;-72
2022/12/05 09:12:23;;;;;;;1.70;1.60;;;4.30;99.90;;;;;;5055778;28;20191;-72
2022/12/05 09:14:52;;;;;;;3.63;1.30;;;4.40;99.90;;;;;;5059203;28;20294;-72
2022/12/05 09:17:18;;;;;;;1.13;1.00;;;4.40;99.90;;;;;;5054464;28;20207;-72
2022/12/05 09:19:45;;;;;;;3.63;1.30;;;4.50;99.90;;;;;;5056933;28;20206;-72
2022/12/05 09:22:12;;;;;;;2.92;1.50;;;4.60;99.90;;;;;;5055320;28;20287;-72
2022/12/05 09:24:39;;;;;;;3.25;1.55;;;4.70;99.90;;;;;;5056602;28;20636;-72
2022/12/05 09:27:06;;;;;;;2.22;2.03;;;4.50;99.90;;;;;;5053639;28;20202;-72
2022/12/05 09:29:32;;;;;;;3.10;2.80;;;4.50;99.90;;;;;;5057180;28;20241;-72
2022/12/05 09:32:01;;;;;;;2.30;1.70;;;4.60;99.90;;;;;;5052097;28;20204;-71
2022/12/05 09:34:28;;;;;;;4.75;2.20;;;6.50;99.90;;;;;;5054869;28;20219;-72
2022/12/05 09:36:56;;;;;;;3.15;1.20;;;4.70;99.90;;;;;;5058688;28;20199;-72
2022/12/05 09:39:23;;;;;;;1.13;0.90;;;4.30;99.90;;;;;;5049571;28;20786;-72
2022/12/05 09:42:17;;;;;;;1.55;1.45;;;4.70;99.90;;;;;;5062916;28;20728;-72
2022/12/05 09:44:53;;;;;;;1.48;1.02;;;4.70;99.90;;;;;;5062335;28;20209;-72
2022/12/05 09:47:34;;;;;;;2.10;1.55;;;4.70;99.90;;;;;;5065592;28;20695;-72
2022/12/05 09:50:12;;;;;;;2.95;1.23;;;4.70;99.90;;;;;;5045415;28;20614;-72
2022/12/05 09:52:43;;;;;;;1.25;1.20;;;4.90;99.90;;;;;;5046076;28;20247;-72
2022/12/05 09:55:13;;;;;;;2.65;2.20;;;4.90;99.90;;;;;;5051305;28;20279;-71
2022/12/05 09:57:45;;;;;;;2.25;2.00;;;4.90;99.90;;;;;;5053743;28;20583;-72
2022/12/05 10:00:13;;;;;;;2.92;2.72;;;5.10;99.90;;;;;;5053414;28;20551;-72
2022/12/05 10:02:50;;;;;;;2.00;1.55;;;4.90;99.90;;;;;;5069524;28;20290;-72
2022/12/05 10:05:22;;;;;;;1.35;1.00;;;5.00;99.90;;;;;;5052192;28;20197;-72
2022/12/05 10:08:00;;;;;;;1.27;1.20;;;5.00;99.90;;;;;;5059508;28;20651;-72
2022/12/05 10:10:38;;;;;;;2.83;1.75;;;5.00;99.90;;;;;;5057311;28;20617;-71
2022/12/05 10:13:30;;;;;;;1.65;1.55;;;5.10;99.90;;;;;;5061335;28;20583;-71
2022/12/05 10:16:02;;;;;;;3.47;1.75;;;5.20;99.90;;;;;;5050624;28;20203;-72
2022/12/05 10:18:38;;;;;;;2.90;1.10;;;5.20;99.90;;;;;;5064251;28;20614;-72
2022/12/05 10:21:14;;;;;;;3.22;2.70;;;5.20;99.90;;;;;;5051925;28;20656;-72
2022/12/05 10:23:52;;;;;;;1.65;1.52;;;5.20;99.90;;;;;;5056568;28;20246;-71
2022/12/05 10:26:21;;;;;;;0.70;0.63;;;5.20;99.90;;;;;;5066264;28;20210;-69
2022/12/05 10:28:52;;;;;;;1.05;0.93;;;5.20;99.90;;;;;;5069362;28;20204;-71
2022/12/05 10:31:25;;;;;;;1.30;1.30;;;5.30;99.90;;;;;;5051903;28;20636;-71
2022/12/05 10:33:58;;;;;;;1.88;1.02;;;5.30;99.90;;;;;;5064245;28;20235;-72
2022/12/05 10:36:25;;;;;;;0.90;0.77;;;5.30;99.90;;;;;;5060527;28;20683;-72
2022/12/05 10:38:53;;;;;;;0.75;0.75;;;5.40;99.90;;;;;;5065866;28;20203;-72
2022/12/05 10:41:20;;;;;;;0.90;0.82;;;5.60;99.90;;;;;;5066393;28;20196;-72
2022/12/05 10:43:48;;;;;;;0.60;0.45;;;6.50;99.90;;;;;;5050801;28;20465;-72
2022/12/05 10:46:17;;;;;;;4.40;1.38;;;5.10;99.90;;;;;;5055717;28;20234;-73
2022/12/05 10:48:44;;;;;;;2.38;1.25;;;5.80;99.90;;;;;;5049743;28;20200;-72
2022/12/05 10:51:15;;;;;;;0.82;0.75;;;5.80;99.90;;;;;;5058945;28;20283;-72
2022/12/05 10:53:44;;;;;;;1.77;1.52;;;5.80;99.90;;;;;;5055119;28;20225;-72
2022/12/05 10:56:37;;;;;;;4.50;1.70;;;5.90;99.90;;;;;;5070093;28;20196;-72
2022/12/05 10:59:04;;;;;;;1.10;1.00;;;6.00;99.90;;;;;;5066092;28;20196;-72
2022/12/05 11:01:31;;;;;;;1.00;0.80;;;6.00;99.90;;;;;;5055618;28;20200;-73
2022/12/05 11:04:00;;;;;;;1.95;1.10;;;6.10;99.90;;;;;;5059380;28;20204;-71
2022/12/05 11:06:31;;;;;;;2.03;1.40;;;6.10;99.90;;;;;;5058389;28;20198;-72
2022/12/05 11:09:03;;;;;;;1.20;1.10;;;6.10;99.90;;;;;;5060684;28;20202;-72
2022/12/05 11:11:32;;;;;;;1.05;1.00;;;6.20;99.90;;;;;;5056140;28;20199;-72
2022/12/05 11:14:01;;;;;;;0.63;0.63;;;6.30;99.90;;;;;;5051924;28;20231;-71
2022/12/05 11:16:31;;;;;;;2.15;0.75;;;6.30;99.90;;;;;;5067504;28;20212;-76
2022/12/05 11:19:19;;;;;;;0.60;0.50;;;6.20;99.90;;;;;;5067968;28;20214;-72
2022/12/05 11:21:47;;;;;;;0.88;0.88;;;6.00;99.90;;;;;;5061449;28;20602;-71
2022/12/05 11:24:22;;;;;;;0.75;0.52;;;6.10;99.90;;;;;;5063725;28;20204;-72
2022/12/05 11:26:49;;;;;;;1.98;1.60;;;6.00;99.90;;;;;;5047485;28;20199;-71
2022/12/05 11:29:30;;;;;;;0.63;0.60;;;6.00;99.90;;;;;;5047366;28;20196;-72
2022/12/05 11:31:56;;;;;;;1.15;0.90;;;6.10;99.90;;;;;;5056377;28;20598;-72
2022/12/05 11:34:27;;;;;;;1.15;1.15;;;6.20;99.90;;;;;;5047937;28;20216;-72
2022/12/05 11:37:00;;;;;;;2.15;1.33;;;6.30;99.90;;;;;;5047585;28;20219;-72
2022/12/05 11:39:27;;;;;;;0.60;0.60;;;6.40;99.90;;;;;;5053298;28;20191;-71
2022/12/05 11:42:12;;;;;;;0.77;0.77;;;6.60;99.90;;;;;;5065474;28;20200;-72
2022/12/05 11:45:04;;;;;;;2.47;1.23;;;6.60;99.90;;;;;;5048299;28;20200;-72
2022/12/05 11:47:49;;;;;;;1.13;0.90;;;6.70;99.90;;;;;;5060595;28;20294;-72
2022/12/05 11:50:33;;;;;;;0.40;0.30;;;6.80;99.90;;;;;;5068099;28;20203;-72
2022/12/05 11:53:16;;;;;;;0.50;0.38;;;6.90;99.90;;;;;;5059810;28;20210;-72
2022/12/05 11:55:48;;;;;;;0.47;0.37;;;7.00;99.90;;;;;;5047150;28;20196;-72
2022/12/05 11:58:43;;;;;;;3.70;1.13;;;7.10;99.70;;;;;;5054987;28;20714;-72
2022/12/05 12:01:22;;;;;;;1.33;0.85;;;6.90;99.40;;;;;;5053118;28;21210;-72
2022/12/05 12:04:03;;;;;;;0.60;0.60;;;6.80;99.60;;;;;;5055266;28;20196;-72
2022/12/05 12:06:33;;;;;;;0.80;0.80;;;6.70;99.70;;;;;;5048100;28;20196;-72
2022/12/05 12:09:22;;;;;;;0.47;0.45;;;6.70;99.80;;;;;;5049118;28;20734;-73
2022/12/05 12:11:57;;;;;;;1.27;1.10;;;6.80;99.90;;;;;;5052630;28;20196;-71
2022/12/05 12:14:30;;;;;;;0.83;0.57;;;6.80;99.90;;;;;;5065075;28;20689;-72
2022/12/05 12:17:06;;;;;;;0.80;0.77;;;6.70;99.80;;;;;;5057773;28;21197;-70
2022/12/05 12:19:51;;;;;;;0.55;0.50;;;6.70;99.00;;;;;;5064903;28;20633;-72
2022/12/05 12:22:33;;;;;;;1.08;0.85;;;6.60;99.00;;;;;;5050892;28;20291;-71
2022/12/05 12:25:23;;;;;;;1.40;1.30;;;6.60;98.90;;;;;;5057811;28;20216;-71
2022/12/05 12:28:04;;;;;;;1.13;0.67;;;6.60;98.90;;;;;;5054484;28;20279;-73
2022/12/05 12:30:43;;;;;;;0.80;0.77;;;6.60;99.10;;;;;;5055824;28;20815;-72
2022/12/05 12:33:15;;;;;;;1.13;0.63;;;6.60;99.20;;;;;;5055497;28;20565;-72
2022/12/05 12:35:50;;;;;;;1.33;0.60;;;6.60;99.40;;;;;;5056869;28;20187;-72
2022/12/05 12:38:36;;;;;;;1.33;0.60;;;6.70;99.10;;;;;;5047654;28;20626;-73
2022/12/05 12:41:12;;;;;;;1.52;1.25;;;6.70;99.20;;;;;;5062671;28;20732;-73
2022/12/05 12:43:50;;;;;;;1.67;0.98;;;6.60;99.20;;;;;;5052094;28;20203;-73
2022/12/05 12:46:27;;;;;;;1.23;1.13;;;6.60;99.40;;;;;;5052063;28;20279;-73
2022/12/05 12:49:05;;;;;;;0.40;0.30;;;6.70;99.90;;;;;;5052082;28;20626;-73
2022/12/05 12:51:33;;;;;;;0.75;0.75;;;6.70;99.70;;;;;;5057134;28;20188;-73
2022/12/05 12:54:31;;;;;;;1.00;0.75;;;6.70;99.50;;;;;;5055333;28;20230;-73
2022/12/05 12:57:08;;;;;;;1.77;1.00;;;6.70;99.00;;;;;;5055720;28;20298;-73
2022/12/05 12:59:49;;;;;;;1.63;0.80;;;7.00;99.90;;;;;;5058200;28;20652;-73
2022/12/05 13:02:22;;;;;;;0.97;0.97;;;6.80;99.10;;;;;;5060842;28;20637;-72
2022/12/05 13:04:54;;;;;;;3.85;1.23;;;6.80;99.50;;;;;;5053458;28;20676;-73
2022/12/05 13:07:26;;;;;;;1.47;1.37;;;6.80;99.20;;;;;;5047677;28;20283;-73
2022/12/05 13:09:57;;;;;;;1.03;0.80;;;6.80;99.60;;;;;;5053966;28;20644;-73
2022/12/05 13:12:30;;;;;;;2.60;0.98;;;6.60;99.10;;;;;;5066695;28;21026;-72
2022/12/05 13:15:01;;;;;;;2.83;1.30;;;6.60;99.00;;;;;;5052415;28;20228;-73
2022/12/05 13:17:31;;;;;;;2.10;1.20;;;6.50;99.50;;;;;;5053585;28;20633;-73
2022/12/05 13:19:59;;;;;;;1.17;1.07;;;6.70;99.60;;;;;;5056384;28;20666;-73
2022/12/05 13:22:28;;;;;;;3.30;1.33;;;6.70;99.60;;;;;;5046640;28;21272;-72
2022/12/05 13:24:55;;;;;;;1.37;1.13;;;6.70;99.90;;;;;;5066808;28;21332;-73
2022/12/05 13:27:24;;;;;;;2.60;1.27;;;6.70;99.90;;;;;;5064187;28;20618;-73